createdAt,value
2018-05-04T00:00:02.232Z,6.50
2018-05-04T00:00:35.975Z,6.50
2018-05-04T00:01:09.491Z,6.50
2018-05-04T00:01:43.771Z,6.40
2018-05-04T00:02:17.497Z,6.40
2018-05-04T00:02:51.669Z,6.40
2018-05-04T00:03:25.396Z,6.40
2018-05-04T00:03:59.138Z,6.40
2018-05-04T00:04:33.246Z,6.40
2018-05-04T00:05:07.015Z,6.40
2018-05-04T00:05:40.731Z,6.40
2018-05-04T00:06:14.471Z,6.40
2018-05-04T00:06:48.941Z,6.40
2018-05-04T00:07:22.673Z,6.40
2018-05-04T00:07:56.411Z,6.40
2018-05-04T00:08:30.139Z,6.30
2018-05-04T00:09:03.729Z,6.30
2018-05-04T00:09:38.215Z,6.30
2018-05-04T00:10:11.966Z,6.30
2018-05-04T00:10:45.721Z,6.40
2018-05-04T00:11:20.237Z,6.30
2018-05-04T00:11:53.967Z,6.30
2018-05-04T00:12:27.708Z,6.30
2018-05-04T00:13:02.215Z,6.30
2018-05-04T00:13:36.726Z,6.30
2018-05-04T00:14:10.471Z,6.30
2018-05-04T00:14:44.206Z,6.30
2018-05-04T00:15:18.718Z,6.30
2018-05-04T00:15:53.199Z,6.30
2018-05-04T00:16:26.948Z,6.30
2018-05-04T00:17:00.671Z,6.30
2018-05-04T00:17:34.073Z,6.30
2018-05-04T00:18:08.570Z,6.30
2018-05-04T00:18:42.310Z,6.30
2018-05-04T00:19:16.039Z,6.30
2018-05-04T00:19:49.773Z,6.30
2018-05-04T00:20:24.280Z,6.30
2018-05-04T00:20:58.789Z,6.30
2018-05-04T00:21:33.329Z,6.30
2018-05-04T00:22:07.079Z,6.30
2018-05-04T00:22:41.601Z,6.30
2018-05-04T00:23:16.118Z,6.20
2018-05-04T00:23:49.852Z,6.20
2018-05-04T00:24:23.587Z,6.20
2018-05-04T00:24:58.083Z,6.20
2018-05-04T00:25:31.805Z,6.20
2018-05-04T00:26:04.981Z,6.20
2018-05-04T00:26:39.165Z,6.20
2018-05-04T00:27:12.872Z,6.20
2018-05-04T00:27:46.599Z,6.20
2018-05-04T00:28:20.317Z,6.20
2018-05-04T00:28:54.046Z,6.10
2018-05-04T00:29:27.785Z,6.20
2018-05-04T00:30:01.511Z,6.20
2018-05-04T00:30:35.214Z,6.20
2018-05-04T00:31:09.682Z,6.10
2018-05-04T00:31:43.450Z,6.10
2018-05-04T00:32:17.200Z,6.10
2018-05-04T00:32:51.688Z,6.10
2018-05-04T00:33:26.183Z,6.10
2018-05-04T00:33:59.899Z,6.10
2018-05-04T00:34:33.625Z,6.10
2018-05-04T00:35:07.362Z,6.10
2018-05-04T00:35:41.100Z,6.10
2018-05-04T00:36:14.831Z,6.10
2018-05-04T00:36:48.583Z,6.10
2018-05-04T00:37:22.359Z,6.10
2018-05-04T00:37:56.257Z,6.10
2018-05-04T00:38:29.982Z,6.10
2018-05-04T00:39:03.147Z,6.10
2018-05-04T00:39:36.894Z,6.00
2018-05-04T00:40:10.601Z,6.00
2018-05-04T00:40:45.091Z,6.00
2018-05-04T00:41:18.859Z,6.00
2018-05-04T00:41:52.680Z,6.00
2018-05-04T00:42:27.170Z,6.00
2018-05-04T00:43:00.890Z,6.00
2018-05-04T00:43:35.391Z,6.00
2018-05-04T00:44:09.902Z,6.00
2018-05-04T00:44:44.415Z,6.00
2018-05-04T00:45:18.993Z,6.00
2018-05-04T00:45:52.865Z,6.00
2018-05-04T00:46:26.602Z,6.00
2018-05-04T00:47:01.128Z,6.00
2018-05-04T00:47:35.640Z,6.00
2018-05-04T00:48:09.364Z,6.00
2018-05-04T00:48:43.099Z,6.00
2018-05-04T00:49:16.825Z,6.00
2018-05-04T00:49:50.560Z,5.90
2018-05-04T00:50:24.287Z,5.90
2018-05-04T00:50:58.785Z,6.00
2018-05-04T00:51:33.294Z,5.90
2018-05-04T00:52:07.837Z,5.90
2018-05-04T00:52:40.890Z,5.90
2018-05-04T00:53:15.391Z,6.00
2018-05-04T00:54:01.263Z,6.00
2018-05-04T00:54:35.754Z,6.00
2018-05-04T00:55:09.474Z,6.00
2018-05-04T00:55:43.961Z,6.00
2018-05-04T00:56:17.695Z,5.90
2018-05-04T00:56:50.760Z,5.90
2018-05-04T00:57:24.505Z,5.90
2018-05-04T00:57:58.249Z,6.00
2018-05-04T00:58:31.985Z,5.90
2018-05-04T00:59:05.703Z,5.90
2018-05-04T00:59:40.195Z,5.90
2018-05-04T01:00:13.922Z,5.90
2018-05-04T01:00:47.324Z,5.90
2018-05-04T01:01:21.034Z,5.90
2018-05-04T01:01:54.763Z,5.90
2018-05-04T01:02:28.490Z,5.90
2018-05-04T01:03:02.193Z,5.90
2018-05-04T01:03:35.911Z,5.90
2018-05-04T01:04:09.643Z,5.90
2018-05-04T01:04:44.126Z,5.90
2018-05-04T01:05:17.850Z,5.90
2018-05-04T01:05:51.574Z,5.90
2018-05-04T01:06:25.308Z,5.90
2018-05-04T01:06:59.814Z,5.90
2018-05-04T01:07:34.308Z,5.90
2018-05-04T01:08:08.032Z,5.90
2018-05-04T01:08:42.558Z,5.90
2018-05-04T01:09:16.278Z,5.90
2018-05-04T01:09:50.025Z,5.90
2018-05-04T01:10:24.512Z,5.90
2018-05-04T01:10:59.022Z,5.90
2018-05-04T01:11:33.520Z,5.90
2018-05-04T01:12:07.270Z,5.90
2018-05-04T01:12:40.978Z,5.90
2018-05-04T01:13:14.694Z,5.90
2018-05-04T01:13:48.420Z,5.90
2018-05-04T01:14:22.153Z,5.90
2018-05-04T01:14:55.873Z,5.90
2018-05-04T01:15:29.586Z,5.90
2018-05-04T01:16:03.321Z,5.90
2018-05-04T01:16:37.642Z,5.90
2018-05-04T01:17:11.373Z,5.90
2018-05-04T01:17:45.857Z,5.90
2018-05-04T01:18:19.232Z,5.80
2018-05-04T01:18:52.952Z,5.80
2018-05-04T01:19:27.548Z,5.80
2018-05-04T01:20:02.094Z,5.80
2018-05-04T01:20:36.764Z,5.80
2018-05-04T01:21:10.499Z,5.80
2018-05-04T01:21:44.208Z,5.80
2018-05-04T01:22:17.984Z,5.80
2018-05-04T01:22:51.694Z,5.80
2018-05-04T01:23:25.414Z,5.80
2018-05-04T01:23:59.130Z,5.80
2018-05-04T01:24:33.636Z,5.80
2018-05-04T01:25:07.777Z,5.70
2018-05-04T01:25:41.680Z,5.70
2018-05-04T01:26:15.425Z,5.70
2018-05-04T01:26:49.918Z,5.70
2018-05-04T01:27:24.098Z,5.70
2018-05-04T01:27:57.825Z,5.70
2018-05-04T01:28:32.316Z,5.70
2018-05-04T01:29:06.804Z,5.70
2018-05-04T01:29:40.513Z,5.70
2018-05-04T01:30:15.040Z,5.70
2018-05-04T01:30:49.526Z,5.70
2018-05-04T01:31:23.290Z,5.70
2018-05-04T01:31:57.008Z,5.60
2018-05-04T01:32:30.771Z,5.60
2018-05-04T01:33:04.488Z,5.60
2018-05-04T01:33:38.227Z,5.60
2018-05-04T01:34:11.944Z,5.60
2018-05-04T01:34:45.678Z,5.60
2018-05-04T01:35:19.388Z,5.60
2018-05-04T01:35:53.246Z,5.60
2018-05-04T01:36:26.966Z,5.60
2018-05-04T01:37:00.698Z,5.60
2018-05-04T01:37:34.452Z,5.50
2018-05-04T01:38:08.192Z,5.60
2018-05-04T01:38:41.928Z,5.60
2018-05-04T01:39:16.746Z,5.50
2018-05-04T01:39:51.222Z,5.50
2018-05-04T01:40:25.038Z,5.50
2018-05-04T01:40:59.628Z,5.50
2018-05-04T01:41:33.349Z,5.50
2018-05-04T01:42:07.076Z,5.50
2018-05-04T01:42:40.516Z,5.50
2018-05-04T01:43:15.020Z,5.50
2018-05-04T01:43:49.508Z,5.50
2018-05-04T01:44:23.246Z,5.50
2018-05-04T01:44:56.974Z,5.50
2018-05-04T01:45:30.694Z,5.50
2018-05-04T01:46:05.220Z,5.50
2018-05-04T01:46:39.725Z,5.50
2018-05-04T01:47:14.241Z,5.50
2018-05-04T01:47:48.751Z,5.50
2018-05-04T01:48:22.476Z,5.50
2018-05-04T01:48:56.205Z,5.50
2018-05-04T01:49:29.938Z,5.50
2018-05-04T01:50:03.008Z,5.50
2018-05-04T01:50:36.738Z,5.50
2018-05-04T01:51:10.475Z,5.50
2018-05-04T01:51:44.980Z,5.50
2018-05-04T01:52:19.454Z,5.50
2018-05-04T01:52:53.215Z,5.50
2018-05-04T01:53:26.939Z,5.50
2018-05-04T01:54:00.664Z,5.50
2018-05-04T01:54:35.271Z,5.50
2018-05-04T01:55:09.779Z,5.50
2018-05-04T01:55:44.266Z,5.50
2018-05-04T01:56:17.994Z,5.50
2018-05-04T01:56:51.711Z,5.50
2018-05-04T01:57:25.438Z,5.50
2018-05-04T01:57:59.179Z,5.50
2018-05-04T01:58:32.904Z,5.50
2018-05-04T01:59:06.620Z,5.50
2018-05-04T01:59:40.329Z,5.50
2018-05-04T02:00:14.807Z,5.50
2018-05-04T02:00:48.516Z,5.50
2018-05-04T02:01:23.139Z,5.50
2018-05-04T02:01:56.878Z,5.50
2018-05-04T02:02:30.585Z,5.50
2018-05-04T02:03:04.025Z,5.50
2018-05-04T02:03:37.383Z,5.50
2018-05-04T02:04:11.536Z,5.40
2018-05-04T02:04:45.036Z,5.40
2018-05-04T02:05:18.196Z,5.40
2018-05-04T02:05:51.930Z,5.40
2018-05-04T02:06:26.071Z,5.40
2018-05-04T02:06:59.791Z,5.40
2018-05-04T02:07:33.510Z,5.40
2018-05-04T02:08:07.257Z,5.40
2018-05-04T02:08:40.997Z,5.40
2018-05-04T02:09:15.810Z,5.30
2018-05-04T02:09:50.323Z,5.40
2018-05-04T02:10:24.802Z,5.40
2018-05-04T02:10:59.150Z,5.30
2018-05-04T02:11:32.881Z,5.30
2018-05-04T02:12:06.255Z,5.30
2018-05-04T02:12:39.972Z,5.30
2018-05-04T02:13:13.383Z,5.30
2018-05-04T02:13:47.873Z,5.30
2018-05-04T02:14:21.617Z,5.30
2018-05-04T02:14:55.012Z,5.30
2018-05-04T02:15:28.741Z,5.30
2018-05-04T02:16:02.477Z,5.30
2018-05-04T02:16:36.210Z,5.30
2018-05-04T02:17:09.931Z,5.30
2018-05-04T02:17:44.421Z,5.30
2018-05-04T02:18:18.168Z,5.30
2018-05-04T02:18:51.899Z,5.30
2018-05-04T02:19:25.613Z,5.30
2018-05-04T02:20:00.164Z,5.30
2018-05-04T02:20:33.552Z,5.30
2018-05-04T02:21:07.277Z,5.30
2018-05-04T02:21:41.005Z,5.20
2018-05-04T02:22:14.723Z,5.20
2018-05-04T02:22:48.465Z,5.20
2018-05-04T02:23:22.979Z,5.20
2018-05-04T02:23:57.460Z,5.20
2018-05-04T02:24:31.171Z,5.20
2018-05-04T02:25:05.680Z,5.20
2018-05-04T02:25:39.409Z,5.20
2018-05-04T02:26:13.135Z,5.20
2018-05-04T02:26:46.917Z,5.20
2018-05-04T02:27:20.644Z,5.20
2018-05-04T02:27:55.132Z,5.20
2018-05-04T02:28:28.911Z,5.20
2018-05-04T02:29:02.635Z,5.20
2018-05-04T02:29:36.352Z,5.20
2018-05-04T02:30:10.065Z,5.20
2018-05-04T02:30:43.569Z,5.20
2018-05-04T02:31:17.293Z,5.20
2018-05-04T02:31:51.771Z,5.20
2018-05-04T02:32:25.491Z,5.20
2018-05-04T02:32:59.184Z,5.20
2018-05-04T02:33:32.951Z,5.20
2018-05-04T02:34:06.773Z,5.20
2018-05-04T02:34:41.251Z,5.20
2018-05-04T02:35:14.986Z,5.20
2018-05-04T02:35:48.709Z,5.20
2018-05-04T02:36:22.551Z,5.20
2018-05-04T02:36:57.059Z,5.10
2018-05-04T02:37:31.556Z,5.10
2018-05-04T02:38:04.947Z,5.10
2018-05-04T02:38:39.565Z,5.10
2018-05-04T02:39:14.058Z,5.10
2018-05-04T02:39:47.788Z,5.10
2018-05-04T02:40:21.511Z,5.20
2018-05-04T02:40:55.251Z,5.10
2018-05-04T02:41:32.665Z,5.10
2018-05-04T02:42:06.369Z,5.10
2018-05-04T02:42:40.075Z,5.10
2018-05-04T02:43:13.792Z,5.10
2018-05-04T02:43:48.323Z,5.10
2018-05-04T02:44:22.037Z,5.10
2018-05-04T02:44:55.755Z,5.10
2018-05-04T02:45:29.578Z,5.10
2018-05-04T02:46:03.734Z,5.10
2018-05-04T02:46:37.445Z,5.10
2018-05-04T02:47:11.183Z,5.10
2018-05-04T02:47:44.907Z,5.10
2018-05-04T02:48:18.634Z,5.10
2018-05-04T02:48:52.378Z,5.10
2018-05-04T02:49:26.123Z,5.10
2018-05-04T02:50:00.629Z,5.10
2018-05-04T02:50:34.341Z,5.00
2018-05-04T02:51:08.081Z,5.10
2018-05-04T02:51:41.805Z,5.10
2018-05-04T02:52:16.313Z,5.10
2018-05-04T02:52:50.788Z,5.10
2018-05-04T02:53:24.539Z,5.10
2018-05-04T02:53:58.273Z,5.00
2018-05-04T02:54:31.993Z,5.10
2018-05-04T02:55:06.501Z,5.00
2018-05-04T02:55:40.213Z,5.10
2018-05-04T02:56:13.933Z,5.10
2018-05-04T02:56:47.697Z,5.10
2018-05-04T02:57:21.425Z,5.10
2018-05-04T02:57:55.137Z,5.00
2018-05-04T02:58:28.867Z,5.10
2018-05-04T02:59:02.639Z,5.10
2018-05-04T02:59:37.145Z,5.00
2018-05-04T03:00:11.633Z,5.10
2018-05-04T03:00:45.365Z,5.00
2018-05-04T03:01:19.876Z,5.10
2018-05-04T03:01:53.626Z,5.10
2018-05-04T03:02:27.359Z,5.10
2018-05-04T03:03:01.074Z,5.10
2018-05-04T03:03:34.837Z,5.00
2018-05-04T03:04:09.357Z,5.10
2018-05-04T03:04:43.101Z,5.10
2018-05-04T03:05:16.828Z,5.10
2018-05-04T03:05:50.543Z,5.10
2018-05-04T03:06:24.269Z,5.10
2018-05-04T03:06:58.011Z,5.10
2018-05-04T03:07:31.721Z,5.00
2018-05-04T03:08:05.461Z,5.00
2018-05-04T03:08:39.960Z,5.00
2018-05-04T03:09:13.751Z,5.00
2018-05-04T03:09:48.243Z,5.00
2018-05-04T03:10:21.984Z,5.00
2018-05-04T03:10:56.477Z,5.00
2018-05-04T03:11:30.998Z,5.00
2018-05-04T03:12:04.407Z,5.00
2018-05-04T03:12:38.169Z,5.00
2018-05-04T03:13:12.687Z,5.00
2018-05-04T03:13:46.417Z,5.00
2018-05-04T03:14:20.163Z,5.00
2018-05-04T03:14:54.187Z,5.00
2018-05-04T03:15:27.902Z,5.00
2018-05-04T03:16:01.628Z,5.00
2018-05-04T03:16:35.331Z,5.00
2018-05-04T03:17:09.060Z,5.00
2018-05-04T03:17:42.779Z,5.00
2018-05-04T03:18:16.499Z,5.00
2018-05-04T03:18:50.973Z,5.00
2018-05-04T03:19:24.731Z,5.00
2018-05-04T03:19:58.473Z,5.00
2018-05-04T03:20:32.211Z,4.90
2018-05-04T03:21:05.951Z,4.90
2018-05-04T03:21:39.665Z,4.90
2018-05-04T03:22:14.137Z,4.90
2018-05-04T03:22:47.545Z,4.90
2018-05-04T03:23:22.039Z,4.90
2018-05-04T03:23:55.755Z,4.90
2018-05-04T03:24:29.523Z,4.90
2018-05-04T03:25:03.270Z,4.90
2018-05-04T03:25:37.027Z,4.90
2018-05-04T03:26:11.628Z,4.90
2018-05-04T03:26:46.113Z,4.90
2018-05-04T03:27:19.837Z,4.90
2018-05-04T03:27:54.327Z,4.90
2018-05-04T03:28:28.081Z,4.90
2018-05-04T03:29:01.812Z,4.90
2018-05-04T03:29:36.339Z,4.90
2018-05-04T03:30:10.837Z,4.90
2018-05-04T03:30:45.339Z,4.90
2018-05-04T03:31:19.052Z,4.90
2018-05-04T03:31:52.786Z,4.90
2018-05-04T03:32:26.527Z,4.90
2018-05-04T03:33:01.013Z,4.90
2018-05-04T03:33:34.729Z,4.90
2018-05-04T03:34:09.218Z,4.90
2018-05-04T03:34:42.981Z,4.90
2018-05-04T03:35:16.807Z,4.90
2018-05-04T03:35:51.313Z,4.90
2018-05-04T03:36:25.024Z,4.90
2018-05-04T03:36:59.183Z,4.90
2018-05-04T03:37:35.090Z,4.90
2018-05-04T03:38:08.851Z,4.90
2018-05-04T03:38:43.327Z,4.90
2018-05-04T03:39:17.059Z,4.90
2018-05-04T03:39:51.185Z,4.90
2018-05-04T03:40:24.961Z,4.90
2018-05-04T03:40:58.693Z,4.90
2018-05-04T03:41:32.526Z,5.00
2018-05-04T03:42:07.015Z,4.90
2018-05-04T03:42:40.743Z,5.00
2018-05-04T03:43:14.471Z,5.00
2018-05-04T03:43:48.185Z,5.00
2018-05-04T03:44:21.917Z,5.00
2018-05-04T03:44:55.680Z,5.00
2018-05-04T03:45:30.199Z,5.00
2018-05-04T03:46:04.689Z,5.00
2018-05-04T03:46:38.191Z,5.00
2018-05-04T03:47:12.447Z,5.10
2018-05-04T03:47:46.175Z,5.00
2018-05-04T03:48:20.674Z,5.10
2018-05-04T03:48:54.419Z,5.10
2018-05-04T03:49:28.151Z,5.10
2018-05-04T03:50:01.893Z,5.20
2018-05-04T03:50:35.615Z,5.20
2018-05-04T03:51:09.527Z,5.20
2018-05-04T03:51:43.241Z,5.20
2018-05-04T03:52:17.705Z,5.30
2018-05-04T03:52:51.424Z,5.30
2018-05-04T03:53:25.128Z,5.30
2018-05-04T03:53:58.863Z,5.30
2018-05-04T03:54:32.594Z,5.30
2018-05-04T03:55:06.350Z,5.40
2018-05-04T03:55:40.073Z,5.40
2018-05-04T03:56:13.828Z,5.40
2018-05-04T03:56:47.541Z,5.40
2018-05-04T03:57:32.511Z,5.40
2018-05-04T03:58:17.382Z,5.40
2018-05-04T03:59:03.039Z,5.50
2018-05-04T03:59:47.885Z,5.50
2018-05-04T04:00:32.722Z,5.50
2018-05-04T04:01:17.563Z,5.60
2018-05-04T04:02:02.666Z,5.60
2018-05-04T04:02:48.521Z,5.70
2018-05-04T04:03:33.439Z,5.70
2018-05-04T04:04:13.191Z,5.80
2018-05-04T04:04:46.920Z,5.80
2018-05-04T04:05:21.408Z,6.00
2018-05-04T04:05:55.171Z,6.00
2018-05-04T04:06:28.907Z,6.10
2018-05-04T04:07:03.391Z,6.30
2018-05-04T04:07:37.149Z,6.30
2018-05-04T04:08:10.875Z,6.40
2018-05-04T04:08:44.627Z,6.60
2018-05-04T04:09:18.357Z,6.70
2018-05-04T04:09:52.072Z,6.90
2018-05-04T04:10:26.349Z,7.10
2018-05-04T04:11:00.131Z,7.10
2018-05-04T04:11:33.186Z,7.30
2018-05-04T04:12:06.934Z,7.40
2018-05-04T04:12:41.425Z,7.70
2018-05-04T04:13:15.336Z,7.60
2018-05-04T04:13:49.845Z,7.90
2018-05-04T04:14:24.011Z,8.10
2018-05-04T04:14:57.736Z,8.10
2018-05-04T04:15:32.240Z,8.30
2018-05-04T04:16:06.767Z,8.40
2018-05-04T04:16:40.500Z,8.40
2018-05-04T04:17:14.232Z,8.50
2018-05-04T04:17:47.947Z,8.60
2018-05-04T04:18:21.682Z,8.70
2018-05-04T04:18:55.408Z,8.80
2018-05-04T04:19:29.931Z,8.90
2018-05-04T04:20:04.427Z,9.00
2018-05-04T04:20:38.916Z,9.10
2018-05-04T04:21:12.663Z,9.10
2018-05-04T04:21:46.421Z,9.20
2018-05-04T04:22:20.928Z,9.40
2018-05-04T04:22:55.435Z,9.50
2018-05-04T04:23:29.974Z,9.60
2018-05-04T04:24:03.683Z,9.50
2018-05-04T04:24:37.428Z,9.60
2018-05-04T04:25:11.937Z,9.80
2018-05-04T04:25:46.445Z,9.90
2018-05-04T04:26:20.971Z,9.90
2018-05-04T04:26:54.709Z,9.90
2018-05-04T04:27:28.176Z,10.00
2018-05-04T04:28:01.925Z,10.00
2018-05-04T04:28:35.438Z,10.10
2018-05-04T04:29:08.920Z,10.20
2018-05-04T04:29:42.409Z,10.20
2018-05-04T04:30:16.169Z,10.30
2018-05-04T04:30:50.678Z,10.40
2018-05-04T04:31:24.178Z,10.30
2018-05-04T04:31:58.671Z,10.50
2018-05-04T04:32:33.160Z,10.60
2018-05-04T04:33:06.887Z,10.60
2018-05-04T04:33:40.354Z,10.70
2018-05-04T04:34:13.832Z,10.70
2018-05-04T04:34:47.323Z,10.70
2018-05-04T04:35:20.810Z,10.80
2018-05-04T04:35:54.044Z,10.80
2018-05-04T04:36:27.530Z,10.70
2018-05-04T04:37:01.774Z,10.80
2018-05-04T04:37:35.278Z,10.70
2018-05-04T04:38:08.746Z,10.70
2018-05-04T04:38:42.234Z,10.70
2018-05-04T04:39:15.685Z,10.60
2018-05-04T04:39:49.898Z,10.70
2018-05-04T04:40:23.377Z,10.70
2018-05-04T04:40:57.582Z,10.60
2018-05-04T04:41:31.856Z,10.60
2018-05-04T04:42:05.320Z,10.60
2018-05-04T04:42:38.800Z,10.70
2018-05-04T04:43:12.260Z,10.70
2018-05-04T04:43:45.722Z,10.70
2018-05-04T04:44:19.946Z,10.70
2018-05-04T04:44:53.408Z,10.70
2018-05-04T04:45:27.635Z,10.80
2018-05-04T04:46:01.118Z,10.80
2018-05-04T04:46:34.676Z,10.90
2018-05-04T04:47:08.902Z,11.00
2018-05-04T04:47:42.370Z,10.90
2018-05-04T04:48:15.855Z,11.10
2018-05-04T04:48:50.081Z,11.20
2018-05-04T04:49:23.572Z,11.30
2018-05-04T04:49:57.045Z,11.30
2018-05-04T04:50:30.511Z,11.40
2018-05-04T04:51:04.718Z,11.60
2018-05-04T04:51:38.223Z,11.50
2018-05-04T04:52:11.856Z,11.60
2018-05-04T04:52:45.308Z,11.70
2018-05-04T04:53:18.772Z,11.70
2018-05-04T04:53:52.222Z,11.80
2018-05-04T04:54:26.444Z,11.90
2018-05-04T04:55:00.714Z,12.00
2018-05-04T04:55:34.172Z,12.00
2018-05-04T04:56:07.744Z,12.00
2018-05-04T04:56:41.248Z,12.00
2018-05-04T04:57:14.708Z,12.10
2018-05-04T04:57:48.358Z,12.10
2018-05-04T04:58:22.610Z,12.30
2018-05-04T04:58:56.074Z,12.30
2018-05-04T04:59:29.566Z,12.30
2018-05-04T05:00:03.028Z,12.40
2018-05-04T05:00:37.261Z,12.40
2018-05-04T05:01:10.786Z,12.40
2018-05-04T05:01:44.347Z,12.50
2018-05-04T05:02:17.942Z,12.50
2018-05-04T05:02:51.402Z,12.60
2018-05-04T05:03:24.910Z,12.60
2018-05-04T05:03:59.186Z,12.70
2018-05-04T05:04:33.414Z,12.70
2018-05-04T05:05:06.572Z,12.70
2018-05-04T05:05:40.083Z,12.70
2018-05-04T05:06:13.584Z,12.80
2018-05-04T05:06:47.091Z,12.80
2018-05-04T05:07:21.327Z,12.90
2018-05-04T05:07:54.794Z,12.90
2018-05-04T05:08:29.026Z,13.10
2018-05-04T05:09:02.508Z,13.10
2018-05-04T05:09:35.983Z,13.10
2018-05-04T05:10:09.450Z,13.10
2018-05-04T05:10:43.702Z,13.10
2018-05-04T05:11:17.188Z,13.10
2018-05-04T05:11:50.718Z,13.10
2018-05-04T05:12:24.952Z,13.10
2018-05-04T05:12:58.434Z,13.10
2018-05-04T05:13:31.948Z,13.00
2018-05-04T05:14:05.610Z,13.10
2018-05-04T05:14:39.070Z,13.10
2018-05-04T05:15:13.297Z,13.00
2018-05-04T05:15:46.754Z,13.00
2018-05-04T05:16:21.010Z,12.90
2018-05-04T05:16:54.537Z,12.90
2018-05-04T05:17:28.802Z,12.80
2018-05-04T05:18:02.270Z,12.80
2018-05-04T05:18:35.758Z,12.80
2018-05-04T05:19:09.243Z,12.80
2018-05-04T05:19:42.720Z,12.80
2018-05-04T05:20:16.200Z,12.80
2018-05-04T05:20:49.682Z,12.80
2018-05-04T05:21:23.150Z,12.80
2018-05-04T05:21:56.628Z,12.90
2018-05-04T05:22:30.109Z,12.90
2018-05-04T05:23:04.334Z,13.00
2018-05-04T05:23:37.887Z,13.00
2018-05-04T05:24:12.235Z,13.10
2018-05-04T05:24:45.714Z,13.10
2018-05-04T05:25:19.198Z,13.20
2018-05-04T05:25:52.676Z,13.10
2018-05-04T05:26:26.985Z,13.20
2018-05-04T05:27:00.474Z,13.20
2018-05-04T05:27:33.938Z,13.20
2018-05-04T05:28:07.932Z,13.30
2018-05-04T05:28:42.236Z,13.30
2018-05-04T05:29:16.481Z,13.40
2018-05-04T05:29:49.980Z,13.40
2018-05-04T05:30:23.479Z,13.50
2018-05-04T05:30:56.979Z,13.50
2018-05-04T05:31:31.223Z,13.60
2018-05-04T05:32:04.392Z,13.60
2018-05-04T05:32:37.860Z,13.60
2018-05-04T05:33:12.104Z,13.70
2018-05-04T05:33:45.597Z,13.70
2018-05-04T05:34:19.053Z,13.70
2018-05-04T05:34:52.518Z,13.70
2018-05-04T05:35:26.750Z,13.80
2018-05-04T05:36:00.221Z,13.80
2018-05-04T05:36:33.689Z,13.80
2018-05-04T05:37:07.968Z,13.90
2018-05-04T05:37:42.231Z,13.90
2018-05-04T05:38:15.699Z,13.90
2018-05-04T05:38:49.196Z,13.90
2018-05-04T05:39:22.682Z,13.90
2018-05-04T05:39:56.152Z,14.00
2018-05-04T05:40:29.863Z,13.90
2018-05-04T05:41:03.326Z,14.00
2018-05-04T05:41:36.808Z,14.00
2018-05-04T05:42:10.312Z,14.00
2018-05-04T05:42:43.778Z,14.00
2018-05-04T05:43:17.231Z,14.00
2018-05-04T05:43:50.713Z,14.00
2018-05-04T05:44:24.182Z,14.00
2018-05-04T05:44:57.687Z,14.00
2018-05-04T05:45:31.936Z,14.10
2018-05-04T05:46:05.404Z,14.10
2018-05-04T05:46:38.870Z,14.20
2018-05-04T05:47:13.142Z,14.10
2018-05-04T05:47:46.376Z,14.10
2018-05-04T05:48:19.628Z,13.90
2018-05-04T05:48:53.972Z,13.80
2018-05-04T05:49:27.240Z,13.80
2018-05-04T05:50:00.719Z,13.90
2018-05-04T05:50:33.966Z,14.00
2018-05-04T05:51:09.658Z,13.80
2018-05-04T05:51:42.886Z,13.80
2018-05-04T05:52:16.934Z,13.80
2018-05-04T05:52:50.448Z,13.80
2018-05-04T05:53:23.936Z,13.80
2018-05-04T05:53:57.478Z,13.70
2018-05-04T05:54:31.041Z,13.60
2018-05-04T05:55:03.995Z,13.50
2018-05-04T05:55:37.512Z,13.40
2018-05-04T05:56:10.989Z,13.40
2018-05-04T05:56:44.896Z,13.30
2018-05-04T05:57:18.408Z,13.30
2018-05-04T05:57:51.902Z,13.30
2018-05-04T05:58:25.379Z,13.30
2018-05-04T05:58:58.854Z,13.30
2018-05-04T05:59:32.334Z,13.20
2018-05-04T06:00:05.489Z,13.20
2018-05-04T06:00:39.736Z,13.20
2018-05-04T06:01:13.219Z,13.10
2018-05-04T06:01:46.722Z,13.10
2018-05-04T06:02:20.388Z,13.10
2018-05-04T06:02:53.862Z,13.00
2018-05-04T06:03:27.518Z,12.90
2018-05-04T06:04:01.854Z,12.80
2018-05-04T06:04:35.443Z,12.80
2018-05-04T06:05:08.930Z,12.80
2018-05-04T06:05:42.400Z,12.80
2018-05-04T06:06:15.866Z,12.80
2018-05-04T06:06:50.084Z,12.70
2018-05-04T06:07:23.598Z,12.70
2018-05-04T06:07:57.061Z,12.60
2018-05-04T06:08:30.552Z,12.60
2018-05-04T06:09:03.375Z,12.50
2018-05-04T06:09:36.836Z,12.50
2018-05-04T06:10:10.362Z,12.50
2018-05-04T06:10:44.599Z,12.40
2018-05-04T06:11:18.074Z,12.30
2018-05-04T06:11:51.528Z,12.30
2018-05-04T06:12:25.546Z,12.30
2018-05-04T06:12:58.806Z,12.30
2018-05-04T06:13:32.288Z,12.20
2018-05-04T06:14:06.552Z,12.10
2018-05-04T06:14:40.043Z,12.10
2018-05-04T06:15:13.520Z,12.10
2018-05-04T06:15:47.000Z,12.00
2018-05-04T06:16:20.418Z,12.00
2018-05-04T06:16:53.916Z,12.00
2018-05-04T06:17:28.230Z,11.90
2018-05-04T06:18:02.483Z,11.80
2018-05-04T06:18:35.635Z,11.80
2018-05-04T06:19:09.108Z,11.80
2018-05-04T06:19:42.580Z,11.70
2018-05-04T06:20:16.820Z,11.60
2018-05-04T06:20:50.297Z,11.60
2018-05-04T06:21:23.774Z,11.60
2018-05-04T06:21:57.259Z,11.50
2018-05-04T06:22:30.764Z,11.40
2018-05-04T06:23:04.242Z,11.40
2018-05-04T06:23:37.710Z,11.40
2018-05-04T06:24:11.194Z,11.40
2018-05-04T06:24:44.681Z,11.30
2018-05-04T06:25:18.169Z,11.30
2018-05-04T06:25:51.660Z,11.30
2018-05-04T06:26:25.156Z,11.30
2018-05-04T06:26:58.636Z,11.30
2018-05-04T06:27:32.209Z,11.30
2018-05-04T06:28:05.742Z,11.30
2018-05-04T06:28:39.249Z,11.30
2018-05-04T06:29:12.736Z,11.30
2018-05-04T06:29:45.861Z,11.30
2018-05-04T06:30:19.352Z,11.30
2018-05-04T06:30:52.882Z,11.20
2018-05-04T06:31:27.114Z,11.20
2018-05-04T06:32:00.598Z,11.10
2018-05-04T06:32:34.101Z,11.10
2018-05-04T06:33:07.568Z,11.10
2018-05-04T06:33:41.095Z,11.10
2018-05-04T06:34:14.745Z,11.10
2018-05-04T06:34:48.237Z,11.10
2018-05-04T06:35:21.743Z,11.10
2018-05-04T06:35:55.245Z,11.10
2018-05-04T06:36:28.484Z,11.10
2018-05-04T06:37:01.986Z,11.00
2018-05-04T06:37:35.522Z,11.10
2018-05-04T06:38:09.009Z,11.10
2018-05-04T06:38:42.473Z,11.10
2018-05-04T06:39:16.585Z,11.10
2018-05-04T06:39:50.080Z,11.10
2018-05-04T06:40:24.372Z,11.20
2018-05-04T06:40:57.859Z,11.10
2018-05-04T06:41:31.351Z,11.10
2018-05-04T06:42:05.089Z,11.10
2018-05-04T06:42:38.638Z,11.10
2018-05-04T06:43:12.908Z,11.10
2018-05-04T06:43:46.412Z,11.00
2018-05-04T06:44:19.901Z,11.10
2018-05-04T06:44:54.205Z,11.00
2018-05-04T06:45:27.988Z,11.00
2018-05-04T06:46:01.481Z,11.00
2018-05-04T06:46:34.955Z,11.00
2018-05-04T06:47:08.453Z,11.10
2018-05-04T06:47:42.572Z,11.10
2018-05-04T06:48:16.796Z,11.20
2018-05-04T06:48:50.270Z,11.10
2018-05-04T06:49:23.750Z,11.20
2018-05-04T06:49:57.492Z,11.20
2018-05-04T06:50:30.948Z,11.20
2018-05-04T06:51:04.409Z,11.30
2018-05-04T06:51:37.874Z,11.30
2018-05-04T06:52:12.131Z,11.40
2018-05-04T06:52:45.903Z,11.40
2018-05-04T06:53:19.647Z,11.40
2018-05-04T06:53:53.315Z,11.40
2018-05-04T06:54:26.896Z,11.40
2018-05-04T06:55:00.404Z,11.40
2018-05-04T06:55:33.927Z,11.40
2018-05-04T06:56:08.153Z,11.50
2018-05-04T06:56:41.645Z,11.40
2018-05-04T06:57:15.119Z,11.50
2018-05-04T06:57:48.632Z,11.50
2018-05-04T06:58:22.132Z,11.50
2018-05-04T06:58:55.604Z,11.50
2018-05-04T06:59:29.107Z,11.50
2018-05-04T07:00:02.419Z,11.50
2018-05-04T07:00:36.755Z,11.50
2018-05-04T07:01:10.259Z,11.50
2018-05-04T07:01:43.769Z,11.60
2018-05-04T07:02:17.266Z,11.60
2018-05-04T07:02:51.591Z,11.60
2018-05-04T07:03:25.815Z,11.60
2018-05-04T07:03:59.275Z,11.60
2018-05-04T07:04:33.585Z,11.60
2018-05-04T07:05:07.071Z,11.70
2018-05-04T07:05:40.550Z,11.70
2018-05-04T07:06:14.781Z,11.70
2018-05-04T07:06:48.261Z,11.70
2018-05-04T07:07:21.793Z,11.70
2018-05-04T07:07:55.533Z,11.70
2018-05-04T07:08:28.995Z,11.70
2018-05-04T07:09:03.287Z,11.70
2018-05-04T07:09:37.932Z,11.80
2018-05-04T07:10:11.415Z,11.70
2018-05-04T07:10:44.881Z,11.70
2018-05-04T07:11:18.352Z,11.80
2018-05-04T07:11:52.595Z,11.80
2018-05-04T07:12:26.103Z,11.80
2018-05-04T07:12:59.614Z,11.90
2018-05-04T07:13:33.105Z,11.90
2018-05-04T07:14:06.569Z,11.90
2018-05-04T07:14:40.054Z,11.90
2018-05-04T07:15:13.542Z,11.90
2018-05-04T07:15:47.103Z,12.00
2018-05-04T07:16:20.593Z,12.00
2018-05-04T07:16:54.079Z,12.10
2018-05-04T07:17:27.578Z,12.10
2018-05-04T07:18:01.105Z,12.10
2018-05-04T07:18:35.341Z,12.10
2018-05-04T07:19:08.873Z,12.10
2018-05-04T07:19:42.362Z,12.20
2018-05-04T07:20:15.865Z,12.10
2018-05-04T07:20:50.111Z,12.10
2018-05-04T07:21:23.633Z,12.00
2018-05-04T07:21:57.172Z,12.10
2018-05-04T07:22:30.789Z,12.00
2018-05-04T07:23:04.297Z,12.00
2018-05-04T07:23:37.795Z,12.00
2018-05-04T07:24:12.082Z,12.10
2018-05-04T07:24:45.553Z,12.00
2018-05-04T07:25:19.026Z,12.10
2018-05-04T07:25:52.531Z,12.10